sensor_id;sensor_type;location;lat;lon;timestamp;pressure;altitude;pressure_sealevel;temperature;humidity
21828;BME280;11076;47.942;11.804;2023-11-19T00:02:49;94320.75;;;15.26;44.80
21828;BME280;11076;47.942;11.804;2023-11-19T00:07:51;94313.69;;;15.20;44.80
21828;BME280;11076;47.942;11.804;2023-11-19T00:12:54;94311.81;;;15.43;44.77
21828;BME280;11076;47.942;11.804;2023-11-19T00:17:56;94302.50;;;15.34;44.80
21828;BME280;11076;47.942;11.804;2023-11-19T00:23:00;94288.88;;;15.18;45.02
21828;BME280;11076;47.942;11.804;2023-11-19T00:28:04;94280.97;;;15.34;44.72
21828;BME280;11076;47.942;11.804;2023-11-19T00:33:07;94277.53;;;15.60;44.41
21828;BME280;11076;47.942;11.804;2023-11-19T00:38:09;94264.66;;;15.67;44.52
21828;BME280;11076;47.942;11.804;2023-11-19T00:43:11;94256.31;;;15.69;44.71
21828;BME280;11076;47.942;11.804;2023-11-19T00:48:14;94249.84;;;15.92;44.12
21828;BME280;11076;47.942;11.804;2023-11-19T00:53:16;94242.59;;;15.70;44.27
21828;BME280;11076;47.942;11.804;2023-11-19T00:58:19;94231.94;;;15.81;44.19
21828;BME280;11076;47.942;11.804;2023-11-19T01:03:21;94226.78;;;16.06;44.23
21828;BME280;11076;47.942;11.804;2023-11-19T01:08:23;94245.16;;;16.09;44.34
21828;BME280;11076;47.942;11.804;2023-11-19T01:13:26;94236.88;;;16.21;43.95
21828;BME280;11076;47.942;11.804;2023-11-19T01:18:29;94233.41;;;16.26;44.38
21828;BME280;11076;47.942;11.804;2023-11-19T01:23:31;94235.19;;;16.47;44.39
21828;BME280;11076;47.942;11.804;2023-11-19T01:28:34;94230.44;;;16.65;44.15
21828;BME280;11076;47.942;11.804;2023-11-19T01:33:37;94227.84;;;16.80;44.26
21828;BME280;11076;47.942;11.804;2023-11-19T01:38:39;94218.75;;;16.92;44.24
21828;BME280;11076;47.942;11.804;2023-11-19T01:43:42;94212.59;;;17.01;44.03
21828;BME280;11076;47.942;11.804;2023-11-19T01:48:46;94201.63;;;17.23;44.03
21828;BME280;11076;47.942;11.804;2023-11-19T01:53:49;94186.81;;;17.46;43.88
21828;BME280;11076;47.942;11.804;2023-11-19T01:58:54;94190.84;;;17.39;44.22
21828;BME280;11076;47.942;11.804;2023-11-19T02:03:57;94177.38;;;17.54;44.26
21828;BME280;11076;47.942;11.804;2023-11-19T02:09:00;94177.78;;;17.10;45.13
21828;BME280;11076;47.942;11.804;2023-11-19T02:14:03;94174.59;;;17.28;44.95
21828;BME280;11076;47.942;11.804;2023-11-19T02:19:06;94178.69;;;17.31;45.60
21828;BME280;11076;47.942;11.804;2023-11-19T02:24:10;94174.69;;;17.59;45.33
21828;BME280;11076;47.942;11.804;2023-11-19T02:29:14;94149.81;;;17.67;45.53
21828;BME280;11076;47.942;11.804;2023-11-19T02:34:16;94134.19;;;18.11;44.63
21828;BME280;11076;47.942;11.804;2023-11-19T02:39:19;94123.63;;;18.19;44.86
21828;BME280;11076;47.942;11.804;2023-11-19T02:44:23;94106.03;;;18.27;44.84
21828;BME280;11076;47.942;11.804;2023-11-19T02:49:26;94101.41;;;18.27;45.08
21828;BME280;11076;47.942;11.804;2023-11-19T02:54:28;94098.66;;;18.48;45.29
21828;BME280;11076;47.942;11.804;2023-11-19T02:59:32;94090.72;;;18.77;44.93
21828;BME280;11076;47.942;11.804;2023-11-19T03:04:41;94077.75;;;18.69;45.45
21828;BME280;11076;47.942;11.804;2023-11-19T03:09:45;94064.63;;;19.02;45.14
21828;BME280;11076;47.942;11.804;2023-11-19T03:14:47;94061.91;;;19.02;45.64
21828;BME280;11076;47.942;11.804;2023-11-19T03:19:52;94056.91;;;19.24;45.21
21828;BME280;11076;47.942;11.804;2023-11-19T03:24:55;94058.13;;;19.03;46.07
21828;BME280;11076;47.942;11.804;2023-11-19T03:29:58;94050.47;;;19.15;45.93
21828;BME280;11076;47.942;11.804;2023-11-19T03:35:01;94049.78;;;19.34;45.48
21828;BME280;11076;47.942;11.804;2023-11-19T03:40:04;94040.06;;;19.27;45.71
21828;BME280;11076;47.942;11.804;2023-11-19T03:45:07;94043.28;;;19.35;45.70
21828;BME280;11076;47.942;11.804;2023-11-19T03:50:13;94037.09;;;19.29;45.84
21828;BME280;11076;47.942;11.804;2023-11-19T03:55:18;94034.19;;;19.15;46.12
21828;BME280;11076;47.942;11.804;2023-11-19T04:00:20;94014.09;;;19.21;46.52
21828;BME280;11076;47.942;11.804;2023-11-19T04:05:23;94014.00;;;19.37;46.91
21828;BME280;11076;47.942;11.804;2023-11-19T04:10:25;94021.63;;;19.30;48.16
21828;BME280;11076;47.942;11.804;2023-11-19T04:15:31;94041.44;;;19.64;48.02
21828;BME280;11076;47.942;11.804;2023-11-19T04:20:33;94034.69;;;19.96;47.65
21828;BME280;11076;47.942;11.804;2023-11-19T04:25:36;94043.00;;;19.76;48.05
21828;BME280;11076;47.942;11.804;2023-11-19T04:30:38;94042.84;;;19.91;48.12
21828;BME280;11076;47.942;11.804;2023-11-19T04:35:43;94049.56;;;20.28;47.51
21828;BME280;11076;47.942;11.804;2023-11-19T04:40:45;94049.66;;;19.89;48.46
21828;BME280;11076;47.942;11.804;2023-11-19T04:45:48;94052.88;;;19.96;48.60
21828;BME280;11076;47.942;11.804;2023-11-19T04:50:50;94059.59;;;20.03;48.64
21828;BME280;11076;47.942;11.804;2023-11-19T04:55:54;94054.19;;;19.98;49.03
21828;BME280;11076;47.942;11.804;2023-11-19T05:00:57;94058.72;;;20.08;48.82
21828;BME280;11076;47.942;11.804;2023-11-19T05:05:59;94051.78;;;20.21;48.73
21828;BME280;11076;47.942;11.804;2023-11-19T05:11:01;94078.09;;;19.96;49.44
21828;BME280;11076;47.942;11.804;2023-11-19T05:16:04;94069.88;;;20.55;48.41
21828;BME280;11076;47.942;11.804;2023-11-19T05:21:07;94080.88;;;20.44;48.74
21828;BME280;11076;47.942;11.804;2023-11-19T05:26:09;94069.59;;;21.04;47.50
21828;BME280;11076;47.942;11.804;2023-11-19T05:31:12;94069.19;;;20.73;48.34
21828;BME280;11076;47.942;11.804;2023-11-19T05:36:15;94078.06;;;20.79;48.09
21828;BME280;11076;47.942;11.804;2023-11-19T05:41:17;94083.25;;;20.99;47.84
21828;BME280;11076;47.942;11.804;2023-11-19T05:46:20;94096.97;;;20.65;48.75
21828;BME280;11076;47.942;11.804;2023-11-19T05:51:22;94088.59;;;20.85;48.40
21828;BME280;11076;47.942;11.804;2023-11-19T05:56:26;94098.31;;;20.68;49.20
21828;BME280;11076;47.942;11.804;2023-11-19T06:01:34;94101.16;;;20.52;49.53
21828;BME280;11076;47.942;11.804;2023-11-19T06:06:37;94111.00;;;20.72;49.13
21828;BME280;11076;47.942;11.804;2023-11-19T06:11:40;94101.91;;;21.06;48.51
21828;BME280;11076;47.942;11.804;2023-11-19T06:16:42;94109.00;;;21.26;48.01
21828;BME280;11076;47.942;11.804;2023-11-19T06:21:46;94107.66;;;21.23;48.13
21828;BME280;11076;47.942;11.804;2023-11-19T06:26:48;94119.63;;;21.22;47.93
21828;BME280;11076;47.942;11.804;2023-11-19T06:31:51;94125.38;;;21.40;47.86
21828;BME280;11076;47.942;11.804;2023-11-19T06:36:53;94121.88;;;21.77;47.12
21828;BME280;11076;47.942;11.804;2023-11-19T06:41:55;94125.28;;;21.50;47.58
21828;BME280;11076;47.942;11.804;2023-11-19T06:46:58;94117.72;;;21.47;47.80
21828;BME280;11076;47.942;11.804;2023-11-19T06:52:01;94113.72;;;21.39;47.77
21828;BME280;11076;47.942;11.804;2023-11-19T06:57:03;94114.06;;;21.33;47.70
21828;BME280;11076;47.942;11.804;2023-11-19T07:02:07;94131.47;;;21.75;47.01
21828;BME280;11076;47.942;11.804;2023-11-19T07:07:09;94141.94;;;21.62;47.45
21828;BME280;11076;47.942;11.804;2023-11-19T07:12:12;94150.25;;;21.09;48.63
21828;BME280;11076;47.942;11.804;2023-11-19T07:17:15;94145.13;;;21.26;48.38
21828;BME280;11076;47.942;11.804;2023-11-19T07:22:19;94153.50;;;21.11;48.37
21828;BME280;11076;47.942;11.804;2023-11-19T07:27:22;94167.75;;;21.46;47.86
21828;BME280;11076;47.942;11.804;2023-11-19T07:32:26;94164.69;;;21.72;47.34
21828;BME280;11076;47.942;11.804;2023-11-19T07:37:28;94175.09;;;21.64;47.49
21828;BME280;11076;47.942;11.804;2023-11-19T07:42:31;94173.63;;;21.72;47.51
21828;BME280;11076;47.942;11.804;2023-11-19T07:47:33;94168.94;;;21.97;46.80
21828;BME280;11076;47.942;11.804;2023-11-19T07:52:37;94175.47;;;21.96;46.73
21828;BME280;11076;47.942;11.804;2023-11-19T07:57:39;94175.03;;;22.08;46.80
21828;BME280;11076;47.942;11.804;2023-11-19T08:02:41;94169.00;;;22.11;46.48
21828;BME280;11076;47.942;11.804;2023-11-19T08:07:44;94163.69;;;22.19;46.26
21828;BME280;11076;47.942;11.804;2023-11-19T08:12:46;94181.94;;;22.00;46.47
21828;BME280;11076;47.942;11.804;2023-11-19T08:17:49;94172.84;;;22.29;45.76
21828;BME280;11076;47.942;11.804;2023-11-19T08:22:51;94179.38;;;22.28;45.77
21828;BME280;11076;47.942;11.804;2023-11-19T08:27:54;94182.59;;;21.54;47.33
21828;BME280;11076;47.942;11.804;2023-11-19T08:32:56;94180.25;;;22.04;46.50
21828;BME280;11076;47.942;11.804;2023-11-19T08:37:59;94191.72;;;22.20;46.12
21828;BME280;11076;47.942;11.804;2023-11-19T08:43:01;94180.31;;;22.18;46.26
21828;BME280;11076;47.942;11.804;2023-11-19T08:48:04;94189.72;;;22.44;46.00
21828;BME280;11076;47.942;11.804;2023-11-19T08:53:06;94183.84;;;22.70;45.18
21828;BME280;11076;47.942;11.804;2023-11-19T08:58:09;94181.50;;;22.77;45.36
21828;BME280;11076;47.942;11.804;2023-11-19T09:03:11;94174.56;;;22.99;44.78
21828;BME280;11076;47.942;11.804;2023-11-19T09:08:14;94188.16;;;23.32;44.44
21828;BME280;11076;47.942;11.804;2023-11-19T09:13:16;94171.28;;;23.02;44.54
21828;BME280;11076;47.942;11.804;2023-11-19T09:18:18;94165.47;;;22.76;44.66
21828;BME280;11076;47.942;11.804;2023-11-19T09:23:21;94184.47;;;22.95;44.48
21828;BME280;11076;47.942;11.804;2023-11-19T09:28:23;94188.31;;;23.08;44.46
21828;BME280;11076;47.942;11.804;2023-11-19T09:33:26;94193.63;;;23.32;44.35
21828;BME280;11076;47.942;11.804;2023-11-19T09:38:28;94185.72;;;23.44;44.09
21828;BME280;11076;47.942;11.804;2023-11-19T09:43:31;94188.53;;;23.53;43.78
21828;BME280;11076;47.942;11.804;2023-11-19T09:48:35;94194.47;;;23.82;43.42
21828;BME280;11076;47.942;11.804;2023-11-19T09:53:38;94190.31;;;23.71;43.74
21828;BME280;11076;47.942;11.804;2023-11-19T09:58:40;94189.50;;;23.71;43.55
21828;BME280;11076;47.942;11.804;2023-11-19T10:03:46;94179.94;;;24.10;43.14
21828;BME280;11076;47.942;11.804;2023-11-19T10:08:49;94176.63;;;23.99;43.28
21828;BME280;11076;47.942;11.804;2023-11-19T10:13:53;94184.50;;;24.00;43.32
21828;BME280;11076;47.942;11.804;2023-11-19T10:18:56;94169.63;;;24.07;43.33
21828;BME280;11076;47.942;11.804;2023-11-19T10:23:58;94169.03;;;24.10;43.22
21828;BME280;11076;47.942;11.804;2023-11-19T10:29:02;94179.44;;;24.30;42.57
21828;BME280;11076;47.942;11.804;2023-11-19T10:34:24;94181.69;;;24.51;42.27
21828;BME280;11076;47.942;11.804;2023-11-19T10:39:52;94161.69;;;24.19;42.45
21828;BME280;11076;47.942;11.804;2023-11-19T10:44:57;94156.50;;;24.54;42.11
21828;BME280;11076;47.942;11.804;2023-11-19T10:50:00;94151.75;;;24.23;42.41
21828;BME280;11076;47.942;11.804;2023-11-19T10:55:04;94140.53;;;24.47;42.32
21828;BME280;11076;47.942;11.804;2023-11-19T11:00:12;94133.13;;;24.25;42.62
21828;BME280;11076;47.942;11.804;2023-11-19T11:05:19;94124.00;;;24.52;42.04
21828;BME280;11076;47.942;11.804;2023-11-19T11:10:25;94126.53;;;24.71;41.95
21828;BME280;11076;47.942;11.804;2023-11-19T11:15:28;94120.34;;;24.34;42.40
21828;BME280;11076;47.942;11.804;2023-11-19T11:20:32;94112.28;;;24.29;42.37
21828;BME280;11076;47.942;11.804;2023-11-19T11:25:59;94114.38;;;24.55;42.25
21828;BME280;11076;47.942;11.804;2023-11-19T11:36:25;94122.19;;;25.10;41.20
21828;BME280;11076;47.942;11.804;2023-11-19T11:41:28;94129.59;;;24.78;41.20
21828;BME280;11076;47.942;11.804;2023-11-19T11:57:10;94110.69;;;24.91;40.60
21828;BME280;11076;47.942;11.804;2023-11-19T12:02:22;94095.75;;;24.34;41.18
21828;BME280;11076;47.942;11.804;2023-11-19T12:07:25;94100.84;;;24.27;41.01
21828;BME280;11076;47.942;11.804;2023-11-19T12:12:28;94101.97;;;24.26;41.57
21828;BME280;11076;47.942;11.804;2023-11-19T12:17:43;94102.59;;;24.23;41.29
21828;BME280;11076;47.942;11.804;2023-11-19T12:22:52;94117.75;;;23.84;41.76
21828;BME280;11076;47.942;11.804;2023-11-19T12:27:55;94095.38;;;23.46;42.54
21828;BME280;11076;47.942;11.804;2023-11-19T12:32:57;94096.59;;;23.39;42.81
21828;BME280;11076;47.942;11.804;2023-11-19T12:38:01;94085.28;;;23.46;43.05
21828;BME280;11076;47.942;11.804;2023-11-19T12:43:03;94079.75;;;23.74;42.45
21828;BME280;11076;47.942;11.804;2023-11-19T12:48:07;94085.53;;;23.95;42.03
21828;BME280;11076;47.942;11.804;2023-11-19T12:53:10;94080.28;;;23.98;42.18
21828;BME280;11076;47.942;11.804;2023-11-19T12:58:32;94079.06;;;24.36;41.79
21828;BME280;11076;47.942;11.804;2023-11-19T13:03:36;94079.88;;;24.36;41.41
21828;BME280;11076;47.942;11.804;2023-11-19T13:08:48;94059.28;;;24.30;41.20
21828;BME280;11076;47.942;11.804;2023-11-19T13:14:00;94052.38;;;24.64;40.61
21828;BME280;11076;47.942;11.804;2023-11-19T13:19:03;94041.50;;;24.41;41.17
21828;BME280;11076;47.942;11.804;2023-11-19T13:24:06;94052.22;;;24.29;41.13
21828;BME280;11076;47.942;11.804;2023-11-19T13:29:09;94038.06;;;24.05;41.69
21828;BME280;11076;47.942;11.804;2023-11-19T13:34:12;94041.91;;;24.26;41.44
21828;BME280;11076;47.942;11.804;2023-11-19T13:39:15;94046.72;;;23.98;41.52
21828;BME280;11076;47.942;11.804;2023-11-19T13:44:24;94037.78;;;24.37;40.87
21828;BME280;11076;47.942;11.804;2023-11-19T13:49:27;94042.59;;;24.09;41.45
21828;BME280;11076;47.942;11.804;2023-11-19T13:54:30;94044.50;;;24.31;41.42
21828;BME280;11076;47.942;11.804;2023-11-19T13:59:33;94039.94;;;24.18;41.47
21828;BME280;11076;47.942;11.804;2023-11-19T14:04:35;94044.00;;;23.98;41.68
21828;BME280;11076;47.942;11.804;2023-11-19T14:09:37;94041.78;;;24.09;41.75
21828;BME280;11076;47.942;11.804;2023-11-19T14:14:40;94033.00;;;23.89;41.85
21828;BME280;11076;47.942;11.804;2023-11-19T14:19:44;94041.53;;;24.19;41.47
21828;BME280;11076;47.942;11.804;2023-11-19T14:24:46;94042.44;;;24.06;41.55
21828;BME280;11076;47.942;11.804;2023-11-19T14:29:49;94012.13;;;23.93;41.78
21828;BME280;11076;47.942;11.804;2023-11-19T14:34:53;94016.59;;;23.67;41.88
21828;BME280;11076;47.942;11.804;2023-11-19T14:39:55;94000.53;;;23.65;41.92
21828;BME280;11076;47.942;11.804;2023-11-19T14:44:57;94006.75;;;23.57;42.36
21828;BME280;11076;47.942;11.804;2023-11-19T14:50:00;94005.88;;;23.48;42.08
21828;BME280;11076;47.942;11.804;2023-11-19T14:55:03;94007.13;;;23.28;42.28
21828;BME280;11076;47.942;11.804;2023-11-19T15:00:06;93986.22;;;22.87;42.74
21828;BME280;11076;47.942;11.804;2023-11-19T15:05:15;93979.34;;;23.03;42.82
21828;BME280;11076;47.942;11.804;2023-11-19T15:10:17;93989.47;;;23.02;42.44
21828;BME280;11076;47.942;11.804;2023-11-19T15:15:19;93981.78;;;22.91;42.90
21828;BME280;11076;47.942;11.804;2023-11-19T15:20:25;93991.28;;;22.66;42.89
21828;BME280;11076;47.942;11.804;2023-11-19T15:25:31;93994.13;;;22.60;43.26
21828;BME280;11076;47.942;11.804;2023-11-19T15:30:34;93984.91;;;23.34;41.89
21828;BME280;11076;47.942;11.804;2023-11-19T15:35:37;93986.72;;;23.39;41.66
21828;BME280;11076;47.942;11.804;2023-11-19T15:40:39;93992.06;;;23.08;42.08
21828;BME280;11076;47.942;11.804;2023-11-19T15:45:42;94000.38;;;22.61;42.69
21828;BME280;11076;47.942;11.804;2023-11-19T15:50:44;94005.22;;;22.64;42.78
21828;BME280;11076;47.942;11.804;2023-11-19T15:55:47;94001.50;;;22.32;43.79
21828;BME280;11076;47.942;11.804;2023-11-19T16:00:49;94004.38;;;22.22;43.78
21828;BME280;11076;47.942;11.804;2023-11-19T16:05:52;93999.59;;;22.47;43.60
21828;BME280;11076;47.942;11.804;2023-11-19T16:10:58;94013.66;;;22.21;43.82
21828;BME280;11076;47.942;11.804;2023-11-19T16:16:01;94004.19;;;22.60;43.26
21828;BME280;11076;47.942;11.804;2023-11-19T16:21:03;94005.19;;;22.78;42.77
21828;BME280;11076;47.942;11.804;2023-11-19T16:26:06;94016.72;;;22.89;42.83
21828;BME280;11076;47.942;11.804;2023-11-19T16:31:08;94021.13;;;23.12;42.67
21828;BME280;11076;47.942;11.804;2023-11-19T16:36:13;94019.34;;;23.44;41.90
21828;BME280;11076;47.942;11.804;2023-11-19T16:41:20;94018.03;;;23.28;42.31
21828;BME280;11076;47.942;11.804;2023-11-19T16:46:31;94015.59;;;23.03;42.60
21828;BME280;11076;47.942;11.804;2023-11-19T16:51:34;94010.28;;;22.71;43.11
21828;BME280;11076;47.942;11.804;2023-11-19T16:56:37;94009.97;;;22.86;42.80
21828;BME280;11076;47.942;11.804;2023-11-19T17:01:40;94013.47;;;23.14;42.52
21828;BME280;11076;47.942;11.804;2023-11-19T17:06:43;94020.63;;;22.96;43.13
21828;BME280;11076;47.942;11.804;2023-11-19T17:11:46;94019.53;;;22.56;43.42
21828;BME280;11076;47.942;11.804;2023-11-19T17:16:49;94014.16;;;22.23;44.02
21828;BME280;11076;47.942;11.804;2023-11-19T17:21:51;94014.66;;;22.11;43.98
21828;BME280;11076;47.942;11.804;2023-11-19T17:26:54;94010.00;;;22.12;44.09
21828;BME280;11076;47.942;11.804;2023-11-19T17:31:56;94017.84;;;22.32;43.45
21828;BME280;11076;47.942;11.804;2023-11-19T17:36:59;94026.56;;;22.15;43.54
21828;BME280;11076;47.942;11.804;2023-11-19T17:42:01;94025.00;;;21.95;44.11
21828;BME280;11076;47.942;11.804;2023-11-19T17:47:04;94034.06;;;21.91;44.08
21828;BME280;11076;47.942;11.804;2023-11-19T17:52:06;94043.03;;;22.24;43.09
21828;BME280;11076;47.942;11.804;2023-11-19T17:57:09;94046.88;;;22.37;42.39
21828;BME280;11076;47.942;11.804;2023-11-19T18:02:12;94046.59;;;22.05;42.69
21828;BME280;11076;47.942;11.804;2023-11-19T18:07:15;94016.16;;;22.03;42.93
21828;BME280;11076;47.942;11.804;2023-11-19T18:12:19;94029.09;;;21.79;43.13
21828;BME280;11076;47.942;11.804;2023-11-19T18:17:21;94036.97;;;21.94;42.96
21828;BME280;11076;47.942;11.804;2023-11-19T18:22:27;94051.31;;;22.00;42.54
21828;BME280;11076;47.942;11.804;2023-11-19T18:27:32;94053.47;;;21.84;42.80
21828;BME280;11076;47.942;11.804;2023-11-19T18:32:34;94059.53;;;21.81;42.63
21828;BME280;11076;47.942;11.804;2023-11-19T18:37:39;94058.34;;;21.87;42.52
21828;BME280;11076;47.942;11.804;2023-11-19T18:42:41;94059.72;;;21.71;42.46
21828;BME280;11076;47.942;11.804;2023-11-19T18:47:44;94062.78;;;21.83;42.38
21828;BME280;11076;47.942;11.804;2023-11-19T18:52:46;94063.69;;;21.92;41.85
21828;BME280;11076;47.942;11.804;2023-11-19T18:57:49;94060.41;;;21.76;42.22
21828;BME280;11076;47.942;11.804;2023-11-19T19:02:51;94064.13;;;21.67;42.57
21828;BME280;11076;47.942;11.804;2023-11-19T19:07:57;94060.97;;;21.92;42.04
21828;BME280;11076;47.942;11.804;2023-11-19T19:13:00;94078.75;;;21.52;42.21
21828;BME280;11076;47.942;11.804;2023-11-19T19:18:02;94085.13;;;21.23;42.58
21828;BME280;11076;47.942;11.804;2023-11-19T19:23:05;94087.00;;;21.22;42.70
21828;BME280;11076;47.942;11.804;2023-11-19T19:28:07;94101.72;;;21.21;43.12
21828;BME280;11076;47.942;11.804;2023-11-19T19:33:14;94087.47;;;21.30;43.25
21828;BME280;11076;47.942;11.804;2023-11-19T19:38:17;94110.38;;;21.23;43.69
21828;BME280;11076;47.942;11.804;2023-11-19T19:43:19;94117.56;;;20.71;44.60
21828;BME280;11076;47.942;11.804;2023-11-19T19:48:22;94134.53;;;21.06;44.19
21828;BME280;11076;47.942;11.804;2023-11-19T19:53:24;94118.16;;;21.11;44.45
21828;BME280;11076;47.942;11.804;2023-11-19T19:58:28;94125.78;;;21.09;43.93
21828;BME280;11076;47.942;11.804;2023-11-19T20:03:30;94125.78;;;21.52;42.98
21828;BME280;11076;47.942;11.804;2023-11-19T20:08:33;94124.94;;;21.33;42.74
21828;BME280;11076;47.942;11.804;2023-11-19T20:13:35;94120.47;;;21.42;42.68
21828;BME280;11076;47.942;11.804;2023-11-19T20:18:39;94129.69;;;21.46;42.38
21828;BME280;11076;47.942;11.804;2023-11-19T20:23:41;94140.50;;;21.51;42.49
21828;BME280;11076;47.942;11.804;2023-11-19T20:28:44;94146.34;;;21.39;42.29
21828;BME280;11076;47.942;11.804;2023-11-19T20:33:47;94155.00;;;21.41;42.53
21828;BME280;11076;47.942;11.804;2023-11-19T20:38:49;94159.53;;;21.70;41.85
21828;BME280;11076;47.942;11.804;2023-11-19T20:43:53;94164.69;;;21.72;41.83
21828;BME280;11076;47.942;11.804;2023-11-19T20:48:55;94154.16;;;21.84;41.56
21828;BME280;11076;47.942;11.804;2023-11-19T20:53:59;94150.19;;;20.90;42.20
21828;BME280;11076;47.942;11.804;2023-11-19T20:59:01;94155.94;;;21.32;41.39
21828;BME280;11076;47.942;11.804;2023-11-19T21:04:04;94160.44;;;21.41;41.46
21828;BME280;11076;47.942;11.804;2023-11-19T21:09:06;94158.16;;;21.73;40.82
21828;BME280;11076;47.942;11.804;2023-11-19T21:14:12;94134.91;;;21.18;41.18
21828;BME280;11076;47.942;11.804;2023-11-19T21:19:16;94141.25;;;21.33;40.83
21828;BME280;11076;47.942;11.804;2023-11-19T21:24:18;94156.50;;;21.29;40.78
21828;BME280;11076;47.942;11.804;2023-11-19T21:29:21;94139.44;;;21.04;41.00
21828;BME280;11076;47.942;11.804;2023-11-19T21:34:23;94144.31;;;21.07;40.85
21828;BME280;11076;47.942;11.804;2023-11-19T21:39:28;94147.31;;;21.05;40.71
21828;BME280;11076;47.942;11.804;2023-11-19T21:44:30;94132.84;;;21.10;40.83
21828;BME280;11076;47.942;11.804;2023-11-19T21:49:34;94127.25;;;21.01;40.79
21828;BME280;11076;47.942;11.804;2023-11-19T21:54:37;94128.44;;;21.14;40.29
21828;BME280;11076;47.942;11.804;2023-11-19T21:59:39;94113.06;;;21.04;40.55
21828;BME280;11076;47.942;11.804;2023-11-19T22:04:42;94116.09;;;21.03;40.76
21828;BME280;11076;47.942;11.804;2023-11-19T22:09:44;94124.63;;;21.15;40.51
21828;BME280;11076;47.942;11.804;2023-11-19T22:14:46;94125.91;;;20.75;41.33
21828;BME280;11076;47.942;11.804;2023-11-19T22:19:49;94124.44;;;20.63;41.64
21828;BME280;11076;47.942;11.804;2023-11-19T22:24:51;94104.84;;;21.10;40.64
21828;BME280;11076;47.942;11.804;2023-11-19T22:29:54;94111.59;;;20.69;41.24
21828;BME280;11076;47.942;11.804;2023-11-19T22:34:56;94117.13;;;21.07;40.49
21828;BME280;11076;47.942;11.804;2023-11-19T22:39:59;94110.56;;;21.08;40.79
21828;BME280;11076;47.942;11.804;2023-11-19T22:45:01;94115.03;;;20.99;40.79
21828;BME280;11076;47.942;11.804;2023-11-19T22:50:04;94107.13;;;21.45;39.92
21828;BME280;11076;47.942;11.804;2023-11-19T22:55:06;94116.34;;;21.25;40.09
21828;BME280;11076;47.942;11.804;2023-11-19T23:00:09;94120.03;;;21.35;40.17
21828;BME280;11076;47.942;11.804;2023-11-19T23:05:18;94111.78;;;21.40;39.74
21828;BME280;11076;47.942;11.804;2023-11-19T23:10:21;94122.00;;;21.86;38.90
21828;BME280;11076;47.942;11.804;2023-11-19T23:15:25;94119.00;;;21.88;38.44
21828;BME280;11076;47.942;11.804;2023-11-19T23:20:27;94121.16;;;21.72;38.85
21828;BME280;11076;47.942;11.804;2023-11-19T23:25:30;94124.84;;;21.81;38.82
21828;BME280;11076;47.942;11.804;2023-11-19T23:30:33;94120.66;;;21.51;39.18
21828;BME280;11076;47.942;11.804;2023-11-19T23:35:35;94118.81;;;21.46;39.48
21828;BME280;11076;47.942;11.804;2023-11-19T23:40:38;94126.75;;;21.61;39.16
21828;BME280;11076;47.942;11.804;2023-11-19T23:45:41;94128.06;;;21.02;40.14
21828;BME280;11076;47.942;11.804;2023-11-19T23:50:44;94130.19;;;21.05;40.02
21828;BME280;11076;47.942;11.804;2023-11-19T23:55:49;94112.13;;;21.14;40.27
